Portada
METAR-TAF:

METAR-TAF

Aeroports :

Cartersville Airport

Cartersville, Geòrgia, Estats Units d'Amèrica

latitud: 34-07-42N, longitud: 084-50-50W, altitud: 233 m

Observació

L'informe es va fer fa 39 minuts, a les 08:53 UTC
Vent calma
Temperatura -6°C
Humitat 79%
Pressió 1030 hPa
Visibilitat: 16.1 km
Cel clar

METAR: KVPC 220853Z AUTO 00000KT 10SM CLR M06/M09 A3041 RMK AO2 SLP299 T10561094 55003

Hora: 04:32 (09:32 UTC)


TAF: manca

Observacions i pronòstics meteorològics de més de 4000 aeroports (METAR i TAF).

Les estacions disponibles són els punts grocs i vermells al mapa.

Posi el ratolí al punt desitjat per veure el nom de l'estació.

Feu clic per veure les observacions i els pronòstics meteorològics.

Per canviar el mapa: feu clic els botons verds amb una creu de color negre per apropar; al botó verd amb un guió per allunyar la imatge; o en les fletxes verdes per a mapes adjacents.


METAR-TAF: